Olympia Regional Airport
KOLM : now visible

Airfield :











YOU CAN JOIN US ON...

 
LOGIN :

Register | Disclaimer

   EN    FR    IT 

 









Legend :    VFR   Marginal VFR   IFR   Intensive IFR   Very Intensive IFR
Visi :
Ceiling :
>= 8 km
>= 3000ft
5 to 8 km
1000 to 3000 ft
1500m to 5 km
500 to 1000 ft
800 to 1500m
200 to 500 ft
< 800m
< 200 ft
Symbols :   Thunderstorms  Fog  Heavy snow  Heavy precipitations  Wind > 20 kt






- Airport Elevation : 209 ft
- IATA code : OLM


KOLM - Olympia Regional

CURRENT METAR :
  • 240854Z AUTO 00000KT 10SM CLR 09/08 A3019 RMK AO2 SLP224 T00940083 58011

EXPIRED METARs :
  • 240754Z AUTO 04003KT 10SM CLR 12/11 A3021 RMK AO2 SLP231 T01170106 402110106
  • 240654Z AUTO 04003KT 10SM CLR 12/10 A3021 RMK AO2 SLP231 T01170100

TAF KOLM
Valid from the 24 at 06:00 until the 25 at 06:00 UTC


240539Z 2406/2506 VRB03KT P6SM SCT250
FM241200 00000KT 3SM BR SCT001 SCT250
TEMPO 2413/2415 1/2SM FG OVC001
FM241500 VRB03KT P6SM SCT250
FM242000 01006KT P6SM SCT250
KZSE FIR / North America



MET'MAP, your aeronautical weather chart ! - Copyright ORBIFLY December 2007 - Disclaimer

ORBIFLY MET'MAP TEAM :

Programming & Development : Alexandra Zaïnal
Concept & original design : Baudouin d'Aumeries
Assistance for programming : Marc-Olivier Méhu
Technical & hardware support : Manuel Goepfert

Contact : metmap@orbifly.com




SOURCES & CREDITS :

   NOAA       Earth
Advisory